Terminal Aerodrome Forecast
Issued by NWS

Home | Current Version | Previous Version | Text Only | Print | Product List | Glossary On
Versions: 1 2 3 4 5 6 7 8 9 10 11 12 13 14 15 16 17 18 19 20 21 22 23 24 25
000
FTUS43 KIND 241720
TAFLAF
TAF
KLAF 241720Z 2418/2518 21015G25KT P6SM VCTS BKN060CB
     FM242100 20016G24KT P6SM -SHRA VCTS OVC025CB
     FM250000 25013KT P6SM SHRA OVC045
     FM250300 27010G20KT P6SM VCSH BKN045
     FM250600 26011G21KT P6SM BKN050
     FM251100 27013G23KT P6SM BKN015
     FM251700 28014G24KT P6SM OVC035=

USA.gov is the U.S. government's official web portal to all federal, state and local government web resources and services.